EQY weather

Charlotte-Monroe Executive Airport
Monroe, North Carolina, United States

Public forecast

Using degrees Fahrenheit for public forecast. Weather courtesy of forecast.io.

METAR (pilot weather report)

Retrieved 2018/09/26 03:53 UTC (27 minutes ago):

KEQY 260353Z AUTO 00000KT 10SM CLR 20/18 A3014 RMK AO2 SLP206 T02000183

TAF (pilot weather forecast)

Forecast is more than 12 hours old.

Closest forecast is Charlotte Douglas International Airport, 19.7 nm (36.5 km) NW. Retrieved 2018/09/25 00:42 UTC (1 day ago):

TAF KCLT 252340Z 2600/2706 07003KT P6SM FEW035 SCT220 FM260600 VRB02KT P6SM BKN110 FM261100 20003KT P6SM BKN050 FM261500 22007KT P6SM BKN040 PROB30 2618/2624 4SM TSRA BR OVC025CB FM270000 26003KT 6SM TSRA BR OVC035CB FM270300 33003KT 6SM -SHRA BR OVC030